Time;durP1;ratioP1;P1;durP2;ratioP2;P2;SDS_P1;SDS_P2;PMS_P1;PMS_P2;Temp;Humidity;BMP_temperature;BMP_pressure;BME280_temperature;BME280_humidity;BME280_pressure;Samples;Min_cycle;Max_cycle;Signal;HPM_P1;HPM_P2
2024/01/23 00:01:22;;;;;;;;;;;-0.30;99.90;;;;;;5059381;28;20424;-79
2024/01/23 00:03:48;;;;;;;;;;;-0.20;99.90;;;;;;5041294;28;19931;-79
2024/01/23 00:06:13;;;;;;;;;;;-0.20;99.90;;;;;;5042014;28;19915;-79
2024/01/23 00:08:39;;;;;;;;;;;-0.30;99.90;;;;;;5060870;28;19909;-79
2024/01/23 00:11:05;;;;;;;;;;;-0.20;99.90;;;;;;5041402;28;19917;-79
2024/01/23 00:13:30;;;;;;;;;;;-0.40;99.90;;;;;;5042800;28;19962;-79
2024/01/23 00:15:56;;;;;;;;;;;-0.30;99.90;;;;;;5041810;28;19916;-79
2024/01/23 00:18:21;;;;;;;;;;;-0.20;99.90;;;;;;5041869;28;20420;-80
2024/01/23 00:20:47;;;;;;;;;;;-0.20;99.90;;;;;;5059360;28;20528;-78
2024/01/23 00:23:13;;;;;;;;;;;-0.20;99.90;;;;;;5049793;28;19908;-79
2024/01/23 00:25:38;;;;;;;;;;;-0.20;99.90;;;;;;5051160;28;19909;-79
2024/01/23 00:28:06;;;;;;;;;;;-0.20;99.90;;;;;;5040889;28;19908;-79
2024/01/23 00:30:31;;;;;;;;;;;-0.30;99.90;;;;;;5061055;28;20026;-78
2024/01/23 00:32:58;;;;;;;;;;;-0.40;99.90;;;;;;5053418;28;19920;-79
2024/01/23 00:35:23;;;;;;;;;;;-0.20;99.90;;;;;;5074112;28;19908;-78
2024/01/23 00:37:49;;;;;;;;;;;-0.20;99.90;;;;;;5058009;28;19916;-79
2024/01/23 00:40:15;;;;;;;;;;;-0.10;99.90;;;;;;5039798;28;19964;-78
2024/01/23 00:42:40;;;;;;;;;;;-0.20;99.90;;;;;;5039743;28;19916;-78
2024/01/23 00:45:06;;;;;;;;;;;-0.30;99.90;;;;;;5057221;28;19913;-78
2024/01/23 00:47:31;;;;;;;;;;;-0.30;99.90;;;;;;5039549;28;20266;-79
2024/01/23 00:49:57;;;;;;;;;;;-0.30;99.90;;;;;;5039669;28;19927;-79
2024/01/23 00:52:22;;;;;;;;;;;-0.30;99.90;;;;;;5058095;28;19909;-78
2024/01/23 00:54:48;;;;;;;;;;;-0.40;99.90;;;;;;5040259;28;19920;-80
2024/01/23 00:57:13;;;;;;;;;;;-0.50;99.90;;;;;;5040105;28;20266;-79
2024/01/23 00:59:39;;;;;;;;;;;-0.40;99.90;;;;;;5058518;28;20376;-79
2024/01/23 01:02:04;;;;;;;;;;;-0.50;99.90;;;;;;5040840;28;19908;-79
2024/01/23 01:04:30;;;;;;;;;;;-0.50;99.90;;;;;;5041195;28;20007;-79
2024/01/23 01:06:55;;;;;;;;;;;-0.60;99.90;;;;;;5040786;28;19919;-79
2024/01/23 01:09:21;;;;;;;;;;;-0.60;99.90;;;;;;5041619;28;19916;-79
2024/01/23 01:11:47;;;;;;;;;;;-0.60;99.90;;;;;;5041210;28;19921;-79
2024/01/23 01:14:13;;;;;;;;;;;-0.60;99.90;;;;;;5041383;28;19948;-80
2024/01/23 01:16:38;;;;;;;;;;;-0.40;99.90;;;;;;5058451;28;19909;-78
2024/01/23 01:19:03;;;;;;;;;;;-0.40;99.90;;;;;;5040147;28;20073;-79
2024/01/23 01:21:29;;;;;;;;;;;0.00;99.90;;;;;;5057194;28;19927;-79
2024/01/23 01:23:54;;;;;;;;;;;0.00;99.90;;;;;;5040135;28;20281;-80
2024/01/23 01:26:20;;;;;;;;;;;-0.20;99.90;;;;;;5058260;28;20292;-76
2024/01/23 01:28:45;;;;;;;;;;;-0.20;99.90;;;;;;5058049;28;20011;-79
2024/01/23 01:31:11;;;;;;;;;;;-0.10;99.90;;;;;;5040645;28;19988;-79
2024/01/23 01:33:36;;;;;;;;;;;-0.10;99.90;;;;;;5041551;28;19913;-79
2024/01/23 01:36:02;;;;;;;;;;;-0.20;99.90;;;;;;5039945;28;20365;-78
2024/01/23 01:38:28;;;;;;;;;;;0.00;99.90;;;;;;5040381;28;19909;-79
2024/01/23 01:40:54;;;;;;;;;;;-0.10;99.90;;;;;;5039911;28;19908;-79
2024/01/23 01:43:25;;;;;;;;;;;-0.10;99.90;;;;;;5040038;28;20332;-79
2024/01/23 01:46:12;;;;;;;;;;;-0.20;99.90;;;;;;5041087;28;19956;-81
2024/01/23 01:48:41;;;;;;;;;;;-0.30;99.90;;;;;;5040809;28;19917;-79
2024/01/23 01:51:07;;;;;;;;;;;-0.20;99.90;;;;;;5040504;28;19916;-79
2024/01/23 01:53:33;;;;;;;;;;;-0.30;99.90;;;;;;5040746;28;19912;-80
2024/01/23 01:55:59;;;;;;;;;;;-0.30;99.90;;;;;;5041924;28;19919;-78
2024/01/23 01:58:27;;;;;;;;;;;-0.30;99.90;;;;;;5040653;28;19955;-78
2024/01/23 02:00:53;;;;;;;;;;;-0.20;99.90;;;;;;5040652;28;20289;-78
2024/01/23 02:03:20;;;;;;;;;;;-0.10;99.90;;;;;;5040385;28;20378;-79
2024/01/23 02:05:45;;;;;;;;;;;-0.10;99.90;;;;;;5040775;28;20431;-79
2024/01/23 02:08:11;;;;;;;;;;;-0.10;99.90;;;;;;5056806;28;19917;-79
2024/01/23 02:10:36;;;;;;;;;;;0.00;99.90;;;;;;5039883;28;19921;-79
2024/01/23 02:13:02;;;;;;;;;;;0.00;99.90;;;;;;5058330;28;20293;-78
2024/01/23 02:15:28;;;;;;;;;;;-0.10;99.90;;;;;;5040642;28;19940;-79
2024/01/23 02:17:55;;;;;;;;;;;-0.20;99.90;;;;;;5041813;28;19939;-79
2024/01/23 02:20:23;;;;;;;;;;;-0.40;99.90;;;;;;5059527;28;19970;-80
2024/01/23 02:22:48;;;;;;;;;;;-0.40;99.90;;;;;;5059934;28;20535;-79
2024/01/23 02:25:14;;;;;;;;;;;-0.40;99.90;;;;;;5042506;28;19912;-79
2024/01/23 02:27:39;;;;;;;;;;;-0.40;99.90;;;;;;5060395;28;19954;-80
2024/01/23 02:30:07;;;;;;;;;;;-0.40;99.90;;;;;;5059481;28;20471;-79
2024/01/23 02:32:33;;;;;;;;;;;-0.50;99.90;;;;;;5048417;28;19916;-80
2024/01/23 02:34:58;;;;;;;;;;;-0.30;99.90;;;;;;5071960;28;19962;-79
2024/01/23 02:37:24;;;;;;;;;;;-0.40;99.90;;;;;;5060643;28;19916;-79
2024/01/23 02:39:50;;;;;;;;;;;-0.40;99.90;;;;;;5058661;28;19979;-79
2024/01/23 02:42:15;;;;;;;;;;;-0.40;99.90;;;;;;5040708;28;19916;-79
2024/01/23 02:44:45;;;;;;;;;;;-0.40;99.90;;;;;;5041073;28;19916;-79
2024/01/23 02:47:11;;;;;;;;;;;-0.40;99.90;;;;;;5041740;28;19935;-79
2024/01/23 02:49:36;;;;;;;;;;;-0.40;99.90;;;;;;5059525;28;19909;-78
2024/01/23 02:52:03;;;;;;;;;;;-0.40;99.90;;;;;;5041759;28;19917;-79
2024/01/23 02:54:30;;;;;;;;;;;-0.40;99.90;;;;;;5059723;28;19909;-79
2024/01/23 02:56:55;;;;;;;;;;;-0.30;99.90;;;;;;5041447;28;19920;-80
2024/01/23 02:59:21;;;;;;;;;;;-0.20;99.90;;;;;;5059953;28;19908;-79
2024/01/23 03:01:47;;;;;;;;;;;-0.20;99.90;;;;;;5041067;28;19909;-79
2024/01/23 03:04:12;;;;;;;;;;;-0.10;99.90;;;;;;5041153;28;19913;-78
2024/01/23 03:06:38;;;;;;;;;;;0.00;99.90;;;;;;5045422;28;19931;-80
2024/01/23 03:09:06;;;;;;;;;;;-0.10;99.90;;;;;;5056700;28;19913;-80
2024/01/23 03:11:31;;;;;;;;;;;-0.20;99.90;;;;;;5049596;28;19917;-79
2024/01/23 03:13:57;;;;;;;;;;;-0.30;99.90;;;;;;5039092;28;19916;-79
2024/01/23 03:16:22;;;;;;;;;;;-0.30;99.90;;;;;;5039286;28;19999;-78
2024/01/23 03:18:48;;;;;;;;;;;-0.40;99.90;;;;;;5057351;28;19958;-79
2024/01/23 03:21:14;;;;;;;;;;;-0.40;99.90;;;;;;5060730;28;20297;-79
2024/01/23 03:23:39;;;;;;;;;;;-0.40;99.90;;;;;;5042820;28;20339;-79
2024/01/23 03:26:05;;;;;;;;;;;-0.40;99.90;;;;;;5062628;28;19913;-79
2024/01/23 03:28:30;;;;;;;;;;;-0.50;99.90;;;;;;5043713;28;19920;-80
2024/01/23 03:30:56;;;;;;;;;;;-0.50;99.90;;;;;;5061199;28;19920;-80
2024/01/23 03:33:21;;;;;;;;;;;-0.50;99.90;;;;;;5062068;28;19913;-79
2024/01/23 03:35:47;;;;;;;;;;;-0.50;99.90;;;;;;5043722;28;19916;-79
2024/01/23 03:38:13;;;;;;;;;;;-0.50;99.90;;;;;;5044056;28;19917;-81
2024/01/23 03:40:39;;;;;;;;;;;-0.40;99.90;;;;;;5062424;28;20334;-79
2024/01/23 03:43:04;;;;;;;;;;;-0.50;99.90;;;;;;5043773;28;19932;-79
2024/01/23 03:45:30;;;;;;;;;;;-0.50;99.90;;;;;;5043883;28;19983;-80
2024/01/23 03:47:55;;;;;;;;;;;-0.40;99.90;;;;;;5043505;28;19916;-79
2024/01/23 03:50:21;;;;;;;;;;;-0.30;99.90;;;;;;5061804;28;19917;-80
2024/01/23 03:52:46;;;;;;;;;;;-0.40;99.90;;;;;;5043980;28;20008;-79
2024/01/23 03:55:12;;;;;;;;;;;-0.50;99.90;;;;;;5043371;28;19908;-79
2024/01/23 03:57:37;;;;;;;;;;;-0.50;99.90;;;;;;5061401;28;19999;-80
2024/01/23 04:00:04;;;;;;;;;;;-0.50;99.90;;;;;;5044120;28;19909;-79
2024/01/23 04:02:31;;;;;;;;;;;-0.60;99.90;;;;;;5043673;28;20040;-79
2024/01/23 04:04:56;;;;;;;;;;;-0.50;99.90;;;;;;5044780;28;19915;-79
2024/01/23 04:07:22;;;;;;;;;;;-0.60;99.90;;;;;;5043660;28;19928;-80
2024/01/23 04:09:48;;;;;;;;;;;-0.50;99.90;;;;;;5043243;28;19948;-79
2024/01/23 04:12:14;;;;;;;;;;;-0.50;99.90;;;;;;5044604;28;19998;-79
2024/01/23 04:14:41;;;;;;;;;;;-0.50;99.90;;;;;;5062539;28;19908;-79
2024/01/23 04:17:06;;;;;;;;;;;-0.50;99.90;;;;;;5044241;28;19937;-79
2024/01/23 04:19:32;;;;;;;;;;;-0.50;99.90;;;;;;5044703;28;19936;-79
2024/01/23 04:21:57;;;;;;;;;;;-0.50;99.90;;;;;;5044117;28;20003;-78
2024/01/23 04:24:23;;;;;;;;;;;-0.50;99.90;;;;;;5044975;28;20420;-79
2024/01/23 04:26:49;;;;;;;;;;;-0.50;99.90;;;;;;5043260;28;20377;-79
2024/01/23 04:29:14;;;;;;;;;;;-0.50;99.90;;;;;;5043134;28;19913;-79
2024/01/23 04:31:40;;;;;;;;;;;-0.50;99.90;;;;;;5043718;28;19917;-77
2024/01/23 04:34:06;;;;;;;;;;;-0.50;99.90;;;;;;5061939;28;19943;-79
2024/01/23 04:36:31;;;;;;;;;;;-0.40;99.90;;;;;;5061642;28;19913;-79
2024/01/23 04:38:57;;;;;;;;;;;-0.40;99.90;;;;;;5043860;28;19909;-80
2024/01/23 04:41:24;;;;;;;;;;;-0.40;99.90;;;;;;5045256;28;19924;-79
2024/01/23 04:43:50;;;;;;;;;;;-0.40;99.90;;;;;;5071675;28;19909;-79
2024/01/23 04:46:15;;;;;;;;;;;-0.30;99.90;;;;;;5047857;28;19919;-79
2024/01/23 04:48:41;;;;;;;;;;;-0.30;99.90;;;;;;5043286;28;19919;-80
2024/01/23 04:51:06;;;;;;;;;;;-0.20;99.90;;;;;;5043063;28;19921;-79
2024/01/23 04:53:32;;;;;;;;;;;-0.30;99.90;;;;;;5042654;28;19912;-79
2024/01/23 04:56:00;;;;;;;;;;;-0.30;99.90;;;;;;5041889;28;19940;-79
2024/01/23 04:58:25;;;;;;;;;;;-0.30;99.90;;;;;;5060288;28;19908;-79
2024/01/23 05:00:51;;;;;;;;;;;-0.40;99.90;;;;;;5042361;28;19909;-79
2024/01/23 05:03:16;;;;;;;;;;;-0.40;99.90;;;;;;5060946;28;19916;-80
2024/01/23 05:05:42;;;;;;;;;;;-0.50;99.90;;;;;;5043002;28;20431;-79
2024/01/23 05:08:08;;;;;;;;;;;-0.40;99.90;;;;;;5042992;28;19912;-78
2024/01/23 05:10:34;;;;;;;;;;;-0.40;99.90;;;;;;5042921;28;19920;-79
2024/01/23 05:12:59;;;;;;;;;;;-0.40;99.90;;;;;;5042500;28;19947;-80
2024/01/23 05:15:25;;;;;;;;;;;-0.40;99.90;;;;;;5043050;28;19909;-79
2024/01/23 05:17:50;;;;;;;;;;;-0.40;99.90;;;;;;5042418;28;19908;-80
2024/01/23 05:20:15;;;;;;;;;;;-0.40;99.90;;;;;;5059652;28;19920;-80
2024/01/23 05:22:41;;;;;;;;;;;-0.20;99.90;;;;;;5042081;28;20344;-80
2024/01/23 05:25:07;;;;;;;;;;;-0.40;99.90;;;;;;5042473;28;19917;-80
2024/01/23 05:27:33;;;;;;;;;;;-0.30;99.90;;;;;;5041849;28;20439;-79
2024/01/23 05:29:59;;;;;;;;;;;-0.30;99.90;;;;;;5042528;28;19917;-80
2024/01/23 05:32:24;;;;;;;;;;;-0.40;99.90;;;;;;5038134;28;19908;-78
2024/01/23 05:34:50;;;;;;;;;;;-0.40;99.90;;;;;;5054273;28;19909;-78
2024/01/23 05:37:16;;;;;;;;;;;-0.30;99.90;;;;;;5038105;28;19935;-78
2024/01/23 05:39:41;;;;;;;;;;;-0.30;99.90;;;;;;5038250;28;20411;-78
2024/01/23 05:42:07;;;;;;;;;;;-0.30;99.90;;;;;;5060922;28;19913;-79
2024/01/23 05:44:32;;;;;;;;;;;-0.30;99.90;;;;;;5065821;28;19913;-78
2024/01/23 05:46:58;;;;;;;;;;;-0.30;99.90;;;;;;5039997;28;19913;-78
2024/01/23 05:49:24;;;;;;;;;;;-0.40;99.90;;;;;;5053512;28;19912;-78
2024/01/23 05:51:49;;;;;;;;;;;-0.30;99.90;;;;;;5054277;28;19974;-78
2024/01/23 05:54:15;;;;;;;;;;;-0.30;99.90;;;;;;5036918;28;19962;-79
2024/01/23 05:56:40;;;;;;;;;;;-0.20;99.90;;;;;;5036335;28;19916;-77
2024/01/23 05:59:06;;;;;;;;;;;-0.30;99.90;;;;;;5036854;28;19984;-79
2024/01/23 06:01:32;;;;;;;;;;;-0.30;99.90;;;;;;5036238;28;19909;-78
2024/01/23 06:03:57;;;;;;;;;;;-0.30;99.90;;;;;;5054686;28;19976;-78
2024/01/23 06:06:23;;;;;;;;;;;-0.40;99.90;;;;;;5035781;28;19928;-78
2024/01/23 06:08:48;;;;;;;;;;;-0.30;99.90;;;;;;5043120;28;20066;-78
2024/01/23 06:11:14;;;;;;;;;;;-0.20;99.90;;;;;;5044915;28;19917;-79
2024/01/23 06:13:39;;;;;;;;;;;-0.30;99.90;;;;;;5043354;28;20624;-78
2024/01/23 06:16:05;;;;;;;;;;;-0.30;99.90;;;;;;5046314;28;19935;-77
2024/01/23 06:18:30;;;;;;;;;;;-0.30;99.90;;;;;;5041565;28;19908;-77
2024/01/23 06:20:57;;;;;;;;;;;-0.40;99.90;;;;;;5040139;28;19936;-78
2024/01/23 06:23:25;;;;;;;;;;;-0.40;99.90;;;;;;5037535;28;19909;-78
2024/01/23 06:25:50;;;;;;;;;;;-0.30;99.90;;;;;;5043097;28;19909;-78
2024/01/23 06:28:16;;;;;;;;;;;-0.30;99.90;;;;;;5054034;28;19912;-77
2024/01/23 06:30:42;;;;;;;;;;;-0.30;99.90;;;;;;5053012;28;19924;-77
2024/01/23 06:33:07;;;;;;;;;;;-0.30;99.90;;;;;;5053480;28;19913;-78
2024/01/23 06:35:36;;;;;;;;;;;-0.20;99.90;;;;;;5052680;28;20380;-79
2024/01/23 06:38:02;;;;;;;;;;;-0.10;99.90;;;;;;5054096;28;19920;-78
2024/01/23 06:40:28;;;;;;;;;;;-0.20;99.90;;;;;;5054213;28;19909;-78
2024/01/23 06:42:53;;;;;;;;;;;-0.20;99.90;;;;;;5053853;28;19916;-78
2024/01/23 06:45:19;;;;;;;;;;;-0.30;99.90;;;;;;5054448;28;20004;-78
2024/01/23 06:47:44;;;;;;;;;;;-0.10;99.90;;;;;;5054923;28;20005;-78
2024/01/23 06:50:10;;;;;;;;;;;-0.20;99.90;;;;;;5054873;28;19916;-78
2024/01/23 06:52:35;;;;;;;;;;;-0.10;99.90;;;;;;5062189;28;20007;-77
2024/01/23 06:55:01;;;;;;;;;;;-0.10;99.90;;;;;;5063388;28;19976;-78
2024/01/23 06:57:26;;;;;;;;;;;-0.10;99.90;;;;;;5057245;28;19920;-78
2024/01/23 06:59:52;;;;;;;;;;;-0.10;99.90;;;;;;5056589;28;19912;-78
2024/01/23 07:02:18;;;;;;;;;;;-0.20;99.90;;;;;;5056074;28;19916;-78
2024/01/23 07:04:43;;;;;;;;;;;-0.20;99.90;;;;;;5055892;28;19909;-78
2024/01/23 07:07:09;;;;;;;;;;;-0.10;99.90;;;;;;5055738;28;20258;-78
2024/01/23 07:09:35;;;;;;;;;;;-0.20;99.90;;;;;;5056504;28;19913;-78
2024/01/23 07:12:00;;;;;;;;;;;-0.10;99.90;;;;;;5054811;28;19917;-78
2024/01/23 07:14:26;;;;;;;;;;;0.00;99.90;;;;;;5054205;28;19908;-77
2024/01/23 07:16:51;;;;;;;;;;;0.00;99.90;;;;;;5054014;28;19913;-78
2024/01/23 07:19:17;;;;;;;;;;;0.10;99.90;;;;;;5055663;28;19959;-78
2024/01/23 07:21:42;;;;;;;;;;;0.20;99.90;;;;;;5075995;28;20384;-77
2024/01/23 07:24:08;;;;;;;;;;;0.30;99.90;;;;;;5076101;28;20380;-78
2024/01/23 07:26:33;;;;;;;;;;;0.40;99.90;;;;;;5058870;28;19950;-78
2024/01/23 07:28:59;;;;;;;;;;;0.50;99.90;;;;;;5058687;28;19920;-77
2024/01/23 07:31:25;;;;;;;;;;;0.60;99.90;;;;;;5075207;28;19916;-77
2024/01/23 07:33:50;;;;;;;;;;;0.70;99.90;;;;;;5075185;28;19913;-78
2024/01/23 07:36:16;;;;;;;;;;;0.70;99.90;;;;;;5057440;28;19986;-77
2024/01/23 07:38:41;;;;;;;;;;;0.70;99.90;;;;;;5076931;28;19955;-78
2024/01/23 07:41:06;;;;;;;;;;;0.80;99.90;;;;;;5076567;28;19950;-78
2024/01/23 07:43:32;;;;;;;;;;;0.90;99.90;;;;;;5077876;28;20019;-78
2024/01/23 07:45:57;;;;;;;;;;;0.90;99.90;;;;;;5060833;28;19916;-78
2024/01/23 07:48:23;;;;;;;;;;;1.00;99.90;;;;;;5060068;28;19909;-78
2024/01/23 07:50:48;;;;;;;;;;;1.00;99.90;;;;;;5078027;28;20364;-78
2024/01/23 07:53:14;;;;;;;;;;;1.00;99.90;;;;;;5061975;28;20011;-78
2024/01/23 07:55:40;;;;;;;;;;;1.00;99.90;;;;;;5077709;28;19951;-79
2024/01/23 07:58:05;;;;;;;;;;;1.00;99.90;;;;;;5077998;28;19908;-80
2024/01/23 08:00:31;;;;;;;;;;;1.00;99.90;;;;;;5077694;28;19909;-77
2024/01/23 08:02:56;;;;;;;;;;;1.00;99.90;;;;;;5059772;28;19912;-78
2024/01/23 08:05:22;;;;;;;;;;;1.00;99.90;;;;;;5058279;28;19935;-79
2024/01/23 08:07:48;;;;;;;;;;;1.00;99.90;;;;;;5060735;28;19908;-79
2024/01/23 08:10:14;;;;;;;;;;;1.00;99.90;;;;;;5060313;28;19917;-79
2024/01/23 08:12:39;;;;;;;;;;;1.10;99.90;;;;;;5060681;28;19915;-77
2024/01/23 08:15:05;;;;;;;;;;;1.30;99.90;;;;;;5078917;28;19979;-79
2024/01/23 08:17:31;;;;;;;;;;;1.40;99.90;;;;;;5078897;28;19966;-79
2024/01/23 08:19:56;;;;;;;;;;;1.30;99.90;;;;;;5079258;28;20042;-79
2024/01/23 08:22:22;;;;;;;;;;;1.30;99.90;;;;;;5079899;28;19916;-78
2024/01/23 08:24:47;;;;;;;;;;;1.40;99.90;;;;;;5079935;28;19909;-78
2024/01/23 08:27:13;;;;;;;;;;;1.40;99.90;;;;;;5061731;28;20014;-79
2024/01/23 08:29:38;;;;;;;;;;;1.60;99.90;;;;;;5079302;28;19995;-77
2024/01/23 08:32:04;;;;;;;;;;;1.70;99.90;;;;;;5061687;28;20054;-79
2024/01/23 08:34:30;;;;;;;;;;;1.60;99.90;;;;;;5061430;28;19908;-79
2024/01/23 08:36:56;;;;;;;;;;;1.70;99.90;;;;;;5060966;28;19913;-79
2024/01/23 08:39:21;;;;;;;;;;;1.80;99.90;;;;;;5056868;28;19955;-77
2024/01/23 08:41:47;;;;;;;;;;;2.00;99.90;;;;;;5073814;28;19909;-78
2024/01/23 08:44:13;;;;;;;;;;;1.80;99.90;;;;;;5056248;28;19928;-77
2024/01/23 08:46:38;;;;;;;;;;;1.80;99.90;;;;;;5073950;28;20384;-77
2024/01/23 08:49:04;;;;;;;;;;;1.90;99.90;;;;;;5055839;28;19908;-77
2024/01/23 08:51:29;;;;;;;;;;;2.00;99.90;;;;;;5055809;28;19952;-78
2024/01/23 08:53:55;;;;;;;;;;;1.90;99.90;;;;;;5056089;28;19909;-76
2024/01/23 08:56:21;;;;;;;;;;;1.90;99.90;;;;;;5055884;28;20391;-77
2024/01/23 08:58:47;;;;;;;;;;;1.90;99.90;;;;;;5072904;28;20671;-77
2024/01/23 09:01:12;;;;;;;;;;;1.80;99.90;;;;;;5055521;28;19908;-76
2024/01/23 09:03:38;;;;;;;;;;;1.80;99.90;;;;;;5058584;28;19971;-78
2024/01/23 09:06:04;;;;;;;;;;;1.70;99.90;;;;;;5061947;28;20002;-77
2024/01/23 09:08:30;;;;;;;;;;;1.60;99.90;;;;;;5057292;28;19935;-77
2024/01/23 09:10:56;;;;;;;;;;;1.50;99.90;;;;;;5072952;28;19920;-78
2024/01/23 09:13:21;;;;;;;;;;;1.40;99.90;;;;;;5054423;28;19908;-77
2024/01/23 09:26:59;;;;;;;49.00;28.17;;;1.30;99.90;;;;;;5113997;27;20387;-77
2024/01/23 09:29:28;;;;;;;50.55;27.80;;;2.40;99.90;;;;;;5115163;28;20047;-76
2024/01/23 09:31:53;;;;;;;50.38;25.40;;;2.50;99.90;;;;;;5112407;28;20035;-77
2024/01/23 09:34:19;;;;;;;;;;;2.40;99.90;;;;;;5110662;28;20466;-77
2024/01/23 09:36:45;;;;;;;46.63;24.80;;;2.40;99.90;;;;;;5110828;28;20422;-77
2024/01/23 09:39:13;;;;;;;;;;;2.40;99.90;;;;;;5108558;28;20028;-77
2024/01/23 09:41:46;;;;;;;52.17;24.98;;;2.30;99.90;;;;;;5093743;28;19903;-78
2024/01/23 09:44:11;;;;;;;58.25;26.83;;;2.30;99.90;;;;;;5110466;28;20050;-77
2024/01/23 09:46:37;;;;;;;;;;;2.30;99.90;;;;;;5112279;28;20020;-77
2024/01/23 09:49:02;;;;;;;55.78;25.98;;;2.30;99.90;;;;;;5107209;28;19987;-77
2024/01/23 09:51:28;;;;;;;;;;;2.30;99.90;;;;;;5095918;28;20032;-78
2024/01/23 09:53:54;;;;;;;54.28;26.10;;;2.20;99.90;;;;;;5103238;28;19904;-78
2024/01/23 09:56:20;;;;;;;;;;;2.20;99.90;;;;;;5111591;28;20087;-78
2024/01/23 09:58:45;;;;;;;46.63;25.40;;;2.20;99.90;;;;;;5101113;28;19912;-77
2024/01/23 10:01:11;;;;;;;;;;;2.20;99.90;;;;;;5111419;28;20035;-78
2024/01/23 10:03:37;;;;;;;60.00;26.95;;;2.20;99.90;;;;;;5109826;28;19912;-76
2024/01/23 10:06:04;;;;;;;;;;;2.30;99.90;;;;;;5110456;28;20539;-78
2024/01/23 10:08:30;;;;;;;64.80;31.33;;;2.30;99.90;;;;;;5111711;28;20399;-77
2024/01/23 10:10:56;;;;;;;;;;;2.30;99.90;;;;;;5110441;28;20032;-77
2024/01/23 10:13:22;;;;;;;56.38;28.88;;;2.20;99.90;;;;;;5111716;28;20397;-77
2024/01/23 10:15:47;;;;;;;;;;;2.20;99.90;;;;;;5112044;28;20075;-77
2024/01/23 10:18:13;;;;;;;64.88;30.42;;;2.20;99.90;;;;;;5110295;28;20014;-78
2024/01/23 10:20:40;;;;;;;;;;;2.20;99.90;;;;;;5109936;28;20030;-77
2024/01/23 10:23:06;;;;;;;58.50;26.70;;;2.30;99.90;;;;;;5109987;28;19911;-76
2024/01/23 10:25:32;;;;;;;63.95;29.33;;;2.30;99.90;;;;;;5110366;28;20039;-77
2024/01/23 10:27:58;;;;;;;61.30;30.85;;;2.40;99.90;;;;;;5096461;28;20031;-80
2024/01/23 10:30:24;;;;;;;;;;;2.40;99.90;;;;;;5097590;28;20024;-77
2024/01/23 10:32:49;;;;;;;64.10;31.85;;;2.60;99.90;;;;;;5099334;28;19981;-76
2024/01/23 10:35:15;;;;;;;;;;;2.50;99.90;;;;;;5097236;28;20032;-77
2024/01/23 10:37:41;;;;;;;62.67;29.42;;;2.50;99.90;;;;;;5096475;28;20065;-75
2024/01/23 10:40:12;;;;;;;;;;;2.50;99.90;;;;;;5086513;28;20480;-76
2024/01/23 10:42:38;;;;;;;64.20;31.98;;;2.60;99.90;;;;;;5096945;28;19942;-76
2024/01/23 10:45:06;;;;;;;68.32;33.17;;;2.80;99.90;;;;;;5093150;28;20101;-77
2024/01/23 10:47:31;;;;;;;68.85;33.88;;;2.80;99.90;;;;;;5075196;28;20074;-75
2024/01/23 10:49:57;;;;;;;;;;;2.90;99.90;;;;;;5073452;28;20032;-77
2024/01/23 10:52:28;;;;;;;70.72;33.40;;;2.90;99.90;;;;;;5073643;28;19905;-77
2024/01/23 10:54:56;;;;;;;67.55;34.08;;;3.00;99.90;;;;;;5089519;28;20044;-77
2024/01/23 10:57:27;;;;;;;66.72;35.40;;;3.00;99.90;;;;;;5078456;28;20078;-77
2024/01/23 10:59:52;;;;;;;64.75;33.45;;;2.90;99.90;;;;;;5093688;28;20093;-76
2024/01/23 11:02:28;;;;;;;;;;;2.90;99.90;;;;;;5089097;28;20484;-78
2024/01/23 11:04:54;;;;;;;66.68;33.65;;;2.90;99.90;;;;;;5086884;28;20294;-78
2024/01/23 11:07:23;;;;;;;;;;;2.80;99.90;;;;;;5077295;28;20036;-77
2024/01/23 11:09:56;;;;;;;64.38;32.90;;;2.80;99.90;;;;;;5096690;28;19931;-79
2024/01/23 11:12:48;;;;;;;68.50;34.65;;;2.80;99.90;;;;;;5087913;28;20031;-78
2024/01/23 11:15:15;;;;;;;70.70;35.38;;;2.70;99.90;;;;;;5095204;28;20536;-78
2024/01/23 11:17:41;;;;;;;61.97;32.92;;;2.70;99.90;;;;;;5082988;28;20055;-78
2024/01/23 11:20:08;;;;;;;;;;;2.80;99.90;;;;;;5080152;28;20028;-78
2024/01/23 11:22:35;;;;;;;65.50;33.83;;;2.80;99.90;;;;;;5080341;28;19915;-78
2024/01/23 11:25:01;;;;;;;61.95;32.53;;;2.80;99.90;;;;;;5078636;28;20068;-78
2024/01/23 11:27:28;;;;;;;;;;;2.90;99.90;;;;;;5095524;28;20492;-77
2024/01/23 11:29:56;;;;;;;62.40;31.75;;;3.00;99.90;;;;;;5091638;28;19915;-78
2024/01/23 11:32:23;;;;;;;60.30;31.05;;;3.10;99.90;;;;;;5081995;28;20032;-79
2024/01/23 11:35:03;;;;;;;60.28;30.75;;;3.10;99.90;;;;;;5092841;28;20048;-78
2024/01/23 11:37:38;;;;;;;67.40;33.42;;;3.10;99.90;;;;;;5100500;28;20023;-78
2024/01/23 11:40:05;;;;;;;62.65;33.72;;;3.10;99.90;;;;;;5102605;28;20031;-79
2024/01/23 11:42:37;;;;;;;65.47;35.17;;;3.20;99.90;;;;;;5101705;28;20020;-78
2024/01/23 11:45:21;;;;;;;63.90;34.53;;;3.20;99.90;;;;;;5096545;28;20021;-79
2024/01/23 11:47:51;;;;;;;52.20;28.35;;;3.30;99.90;;;;;;5079336;28;20033;-78
2024/01/23 11:50:18;;;;;;;57.78;29.77;;;3.30;99.90;;;;;;5096978;28;20041;-79
2024/01/23 11:52:49;;;;;;;52.83;29.35;;;3.30;99.90;;;;;;5101683;28;20016;-81
2024/01/23 11:55:16;;;;;;;50.92;28.75;;;3.40;99.90;;;;;;5097841;28;20044;-78
2024/01/23 11:57:41;;;;;;;53.45;29.10;;;3.50;99.90;;;;;;5096089;28;20029;-78
2024/01/23 12:00:07;;;;;;;;;;;3.50;99.90;;;;;;5081463;28;20503;-78
2024/01/23 12:02:35;;;;;;;61.53;32.58;;;3.50;99.90;;;;;;5089939;28;19915;-81
2024/01/23 12:05:00;;;;;;;49.65;26.25;;;3.50;99.90;;;;;;5103852;28;20092;-80
2024/01/23 12:07:26;;;;;;;;;;;3.50;99.90;;;;;;5104800;28;20484;-80
2024/01/23 12:09:52;;;;;;;42.10;21.80;;;3.50;99.90;;;;;;5103121;28;19952;-80
2024/01/23 12:12:17;;;;;;;;;;;3.60;99.90;;;;;;5103470;28;20028;-80
2024/01/23 12:14:45;;;;;;;37.05;19.08;;;3.70;99.90;;;;;;5102316;28;19912;-80
2024/01/23 12:17:11;;;;;;;43.03;22.63;;;3.90;99.90;;;;;;5099873;28;20024;-79
2024/01/23 12:19:46;;;;;;;;;;;4.00;99.90;;;;;;5091344;28;20029;-80
2024/01/23 12:22:15;;;;;;;36.38;18.42;;;3.90;99.90;;;;;;5098291;28;19912;-79
2024/01/23 12:24:42;;;;;;;33.55;17.83;;;4.00;99.90;;;;;;5088776;28;20028;-79
2024/01/23 12:27:08;;;;;;;36.67;19.15;;;4.10;99.90;;;;;;5082812;28;20032;-80
2024/01/23 12:29:35;;;;;;;35.33;20.05;;;4.20;99.90;;;;;;5079177;28;20098;-79
2024/01/23 12:32:02;;;;;;;35.00;20.45;;;4.30;99.90;;;;;;5083884;28;20028;-80
2024/01/23 12:34:30;;;;;;;36.13;19.60;;;4.50;99.90;;;;;;5081477;28;20020;-79
2024/01/23 12:37:00;;;;;;;34.67;19.05;;;4.30;99.90;;;;;;5082494;28;20558;-80
2024/01/23 12:39:28;;;;;;;39.95;21.15;;;4.40;99.90;;;;;;5081311;28;20021;-80
2024/01/23 12:41:54;;;;;;;37.63;20.13;;;4.40;99.90;;;;;;5073020;28;20029;-79
2024/01/23 12:44:19;;;;;;;;;;;4.40;99.90;;;;;;5080207;28;20052;-79
2024/01/23 12:46:45;;;;;;;37.03;19.50;;;4.40;99.90;;;;;;5077068;28;19947;-79
2024/01/23 12:49:10;;;;;;;;;;;4.30;99.90;;;;;;5077842;28;20046;-79
2024/01/23 12:51:37;;;;;;;37.60;19.95;;;4.30;99.90;;;;;;5079465;28;19904;-78
2024/01/23 12:54:04;;;;;;;39.80;20.27;;;4.30;99.90;;;;;;5077795;28;20066;-79
2024/01/23 12:56:30;;;;;;;41.28;21.75;;;4.30;99.90;;;;;;5077139;28;20037;-80
2024/01/23 12:58:56;;;;;;;38.50;20.55;;;4.30;99.90;;;;;;5078077;28;20029;-79
2024/01/23 13:01:21;;;;;;;;;;;4.30;99.90;;;;;;5089548;28;20046;-80
2024/01/23 13:03:47;;;;;;;35.85;18.45;;;4.20;99.90;;;;;;5080447;28;19909;-79
2024/01/23 13:06:12;;;;;;;;;;;4.30;99.90;;;;;;5087599;28;20085;-79
2024/01/23 13:08:38;;;;;;;46.10;21.58;;;4.30;99.90;;;;;;5084442;28;20051;-80
2024/01/23 13:11:04;;;;;;;;;;;4.30;99.90;;;;;;5082144;28;20052;-76
2024/01/23 13:13:29;;;;;;;35.65;20.35;;;4.40;99.90;;;;;;5078392;28;19908;-80
2024/01/23 13:15:55;;;;;;;;;;;4.40;99.90;;;;;;5079699;28;20040;-79
2024/01/23 13:18:21;;;;;;;35.78;18.48;;;4.40;99.90;;;;;;5074974;28;19908;-80
2024/01/23 13:20:47;;;;;;;36.90;19.77;;;4.40;99.90;;;;;;5075943;28;20028;-79
2024/01/23 13:23:13;;;;;;;42.08;21.20;;;4.40;99.90;;;;;;5075464;28;20107;-78
2024/01/23 13:25:48;;;;;;;;;;;4.40;99.90;;;;;;5077587;28;20533;-79
2024/01/23 13:28:18;;;;;;;33.95;18.85;;;4.30;99.90;;;;;;5073475;28;19972;-79
2024/01/23 13:30:47;;;;;;;40.25;20.55;;;4.30;99.90;;;;;;5075863;28;20059;-79
2024/01/23 13:33:13;;;;;;;35.35;19.02;;;4.40;99.90;;;;;;5076678;28;20032;-79
2024/01/23 13:35:39;;;;;;;;;;;4.40;99.90;;;;;;5076829;28;20083;-79
2024/01/23 13:38:06;;;;;;;40.53;20.40;;;4.50;99.90;;;;;;5076250;28;19943;-79
2024/01/23 13:40:31;;;;;;;43.53;22.27;;;4.70;99.90;;;;;;5084050;28;20059;-80
2024/01/23 13:42:57;;;;;;;;;;;4.80;99.90;;;;;;5096136;28;20028;-80
2024/01/23 13:45:23;;;;;;;34.95;18.27;;;4.80;99.90;;;;;;5099840;28;19908;-79
2024/01/23 13:47:50;;;;;;;34.78;19.27;;;5.00;99.90;;;;;;5099589;28;20123;-80
2024/01/23 13:50:17;;;;;;;38.22;20.15;;;5.00;99.90;;;;;;5100785;28;20076;-80
2024/01/23 13:52:43;;;;;;;31.88;17.85;;;5.00;99.90;;;;;;5092735;28;20048;-80
2024/01/23 13:55:10;;;;;;;32.60;17.60;;;5.00;99.90;;;;;;5097779;28;20032;-80
2024/01/23 13:57:38;;;;;;;31.33;18.15;;;5.00;99.90;;;;;;5098742;28;20051;-80
2024/01/23 14:00:11;;;;;;;31.17;16.48;;;4.90;99.90;;;;;;5099015;28;20069;-80